Friday, October 20, 2017, 9:26 PM EDT
Back to Local

KBKL, Cleveland Burke Lakefront

Location: Cleveland, OH, United States Lat: 41.533
Local Time: 9:26 PM EDT ( 1:26 GMT) Lon: -81.667
Time Zone: US/Eastern Elev: 583 ft

Show me the last for .
Show Decoded

2017-10-20 20:53 METAR KBKL 210053Z 16006KT 10SM CLR 18/05 A3018 RMK AO2 SLP219 T01830050 =
2017-10-20 19:53 METAR KBKL 202353Z 18004KT 10SM CLR 19/05 A3019 RMK AO2 SLP223 T01940050 10228
                 20183 55002 =
2017-10-20 18:53 METAR KBKL 202253Z 17004KT 10SM CLR 20/08 A3018 RMK AO2 SLP219 T02000083 =
2017-10-20 17:53 METAR KBKL 202153Z 04005KT 10SM CLR 19/13 A3018 RMK AO2 SLP219 T01940128 =
2017-10-20 16:53 METAR KBKL 202053Z 04005KT 10SM CLR 21/11 A3019 RMK AO2 SLP224 T02110111 56016 =
2017-10-20 15:53 METAR KBKL 201953Z 36004KT 10SM CLR 22/03 A3021 RMK AO2 SLP229 T02220028 =
2017-10-20 14:53 METAR KBKL 201853Z 21005KT 10SM CLR 23/02 A3023 RMK AO2 SLP233 T02280017 =
2017-10-20 13:53 METAR KBKL 201753Z 15006KT 10SM CLR 22/02 A3024 RMK AO2 SLP239 T02170022 10217
                 20100 58017 =
2017-10-20 12:53 METAR KBKL 201653Z 19007KT 150V210 10SM CLR 21/04 A3026 RMK AO2 SLP246 T02110039
                 =
2017-10-20 11:53 METAR KBKL 201553Z 13007KT 10SM CLR 19/02 A3028 RMK AO2 SLP253 T01940022 =
2017-10-20 10:53 METAR KBKL 201453Z 14006KT 10SM CLR 17/08 A3029 RMK AO2 SLP256 T01720078 50009 =
2017-10-20 09:53 METAR KBKL 201353Z 15007KT 10SM CLR 14/08 A3030 RMK AO2 SLP260 T01440083 =
2017-10-20 08:53 METAR KBKL 201253Z 17004KT 7SM CLR 12/08 A3029 RMK AO2 SLP258 T01170078 =
2017-10-20 07:53 METAR KBKL 201153Z 15007KT 7SM CLR 10/07 A3027 RMK AO2 SLP249 T01000072 10172
                 20100 51014 =
2017-10-20 06:53 METAR KBKL 201053Z 15004KT 10SM CLR 11/07 A3025 RMK AO2 SLP245 T01110072 =
2017-10-20 05:53 METAR KBKL 200953Z 12003KT 10SM CLR 12/08 A3024 RMK AO2 SLP239 T01170083 =
2017-10-20 04:53 METAR KBKL 200853Z 16003KT 10SM CLR 12/08 A3022 RMK AO2 SLP234 T01170078 53012 =
2017-10-20 03:53 METAR KBKL 200753Z 18004KT 10SM CLR 12/08 A3020 RMK AO2 SLP227 T01220078 =
2017-10-20 02:53 METAR KBKL 200653Z 13005KT 10SM CLR 13/08 A3020 RMK AO2 SLP225 T01330078 =
2017-10-20 01:53 METAR KBKL 200553Z 34007KT 10SM CLR 17/05 A3019 RMK AO2 SLP221 T01720050 10183
                 20167 51012 =
2017-10-20 00:53 METAR KBKL 200453Z 34007KT 10SM CLR 17/04 A3018 RMK AO2 SLP217 T01720044
                 402280117 =
2017-10-19 23:53 METAR KBKL 200353Z 33007KT 10SM CLR 18/06 A3017 RMK AO2 SLP214 T01780056 =
2017-10-19 22:53 METAR KBKL 200253Z 30010KT 10SM CLR 18/08 A3015 RMK AO2 SLP209 T01830083 53006 =
2017-10-19 21:53 METAR KBKL 200153Z 29011KT 10SM CLR 18/13 A3015 RMK AO2 SLP208 T01830128 =

Support USWX by starting your Amazon purchase here.